• Join FlightAware (Why Join?)
  • Login
  • US Flag 
11:24AM EDT


 

Airport Tracker/Info


-or-


 

Live Flight TrackerFlight Track Log ✈ GLA63P ✈ 29-Apr-2013 ✈ KPRC - KCNY

Flight Track Log - Related Links

Times and Time Zones

All times are in EDT time to prevent confusion due to time zone crossing. See the GLA63P flight status page for this flight to view local times or setup timezone preferences in your user account.

Time Position Orientation Groundspeed Altitude Reporting Facility
EDT Latitude Longitude Course Direction KTS MPH feet Rate Location/Type
08:15AM 34.6553 -112.4661 343° North 133 153 7,400  Level Los Angeles Center
08:16AM 34.7022 -112.4839 343° North 175 201 8,600 1,140 Climbing Los Angeles Center
08:17AM 34.7567 -112.4783 North 185 213 9,800 1,260 Climbing Los Angeles Center
08:18AM 34.8117 -112.4753 North 196 226 11,200 1,440 Climbing Los Angeles Center
08:19AM 34.8697 -112.4714 North 207 238 12,700 1,380 Climbing Los Angeles Center
08:20AM 34.9283 -112.4614 North 214 246 14,100 1,260 Climbing Los Angeles Center
08:21AM 34.9872 -112.4575 North 215 247 15,300 1,200 Climbing Los Angeles Center
08:22AM 35.0489 -112.4583 359° North 223 257 16,500 1,200 Climbing Los Angeles Center
08:23AM 35.1114 -112.4556 North 227 261 17,700 1,080 Climbing Los Angeles Center
08:24AM 35.1750 -112.4492 North 230 265 18,700 900 Climbing Los Angeles Center
08:25AM 35.2397 -112.4356 10° North 237 273 19,600 840 Climbing Los Angeles Center
08:26AM 35.3064 -112.4297 North 242 278 20,500 900 Climbing Los Angeles Center
08:27AM 35.3733 -112.4264 North 243 280 21,400 660 Climbing Los Angeles Center
08:28AM 35.4392 -112.4208 North 239 275 21,900 240 Climbing Los Angeles Center
08:29AM 35.5086 -112.4178 North 248 285 21,900  Level Los Angeles Center
08:30AM 35.5800 -112.4158 North 257 296 21,900  Level Los Angeles Center
08:31AM 35.6611 -112.3711 24° Northeast 269 310 21,900  Level Los Angeles Center
08:32AM 35.7267 -112.3286 28° Northeast 269 310 21,900  Level Los Angeles Center
08:33AM 35.7900 -112.2792 32° Northeast 271 312 21,900  Level Los Angeles Center
08:34AM 35.8497 -112.2228 37° Northeast 271 312 21,900  Level Los Angeles Center
08:35AM 35.9094 -112.1689 36° Northeast 269 310 21,900  Level Los Angeles Center
08:36AM 35.9728 -112.1197 32° Northeast 269 310 21,900  Level Los Angeles Center
08:37AM 36.0364 -112.0736 30° Northeast 267 307 21,900  Level Los Angeles Center
08:38AM 36.1036 -112.0358 24° Northeast 267 307 21,900  Level Los Angeles Center
08:39AM 36.1719 -112.0008 22° Northeast 266 306 21,900  Level Los Angeles Center
08:40AM 36.2350 -111.9531 31° Northeast 270 311 21,900  Level Los Angeles Center
08:41AM 36.2992 -111.9033 32° Northeast 272 313 21,900  Level Los Angeles Center
08:42AM 36.3642 -111.8550 31° Northeast 272 313 21,900  Level Los Angeles Center
08:42AM 36.3886 -111.8378 30° Northeast 272 313 21,900 60 Level Denver Center
08:43AM 36.4531 -111.7892 31° Northeast 271 312 22,000  Climbing Denver Center
08:44AM 36.5158 -111.7353 35° Northeast 274 315 22,000  Level Denver Center
08:45AM 36.5756 -111.6781 38° Northeast 272 313 22,000  Level Denver Center
08:46AM 36.6369 -111.6219 36° Northeast 274 315 22,000  Level Denver Center
08:47AM 36.6983 -111.5664 36° Northeast 274 315 22,000  Level Denver Center
08:48AM 36.7611 -111.5103 36° Northeast 276 318 22,000  Level Denver Center
08:49AM 36.8211 -111.4567 36° Northeast 272 313 22,000  Level Denver Center
08:50AM 36.8831 -111.4022 35° Northeast 272 313 22,000  Level Denver Center
08:51AM 36.9453 -111.3458 36° Northeast 274 315 22,000  Level Denver Center
08:53AM 37.0214 -111.2789 35° Northeast 279 321 22,000  Level Denver Center
08:54AM 37.0808 -111.2200 38° Northeast 275 316 22,000  Level Denver Center
08:55AM 37.1433 -111.1603 37° Northeast 281 323 22,000  Level Denver Center
08:56AM 37.2081 -111.1056 34° Northeast 282 325 22,000  Level Denver Center
08:57AM 37.2711 -111.0478 36° Northeast 281 323 22,000  Level Denver Center
08:58AM 37.3481 -110.9803 35° Northeast 282 325 22,000  Level Denver Center
08:59AM 37.4108 -110.9253 35° Northeast 277 319 22,100  Climbing Denver Center
09:00AM 37.4764 -110.8728 32° Northeast 278 320 22,000 -60 Descending Denver Center
09:01AM 37.5406 -110.8244 31° Northeast 274 315 22,000  Level Denver Center
09:02AM 37.6094 -110.7814 26° Northeast 276 318 22,000  Level Denver Center
09:03AM 37.6731 -110.7367 29° Northeast 267 307 22,100 -300 Climbing Denver Center
09:04AM 37.7500 -110.6792 31° Northeast 267 307 21,500 -720 Descending Denver Center
09:05AM 37.8144 -110.6303 31° Northeast 270 311 20,700 -840 Descending Denver Center
09:06AM 37.8753 -110.5767 35° Northeast 269 310 19,900 -840 Descending Denver Center
09:07AM 37.9364 -110.5236 34° Northeast 268 308 19,100 -840 Descending Denver Center
09:08AM 37.9981 -110.4694 35° Northeast 269 310 18,200 -720 Descending Denver Center
09:09AM 38.0603 -110.4119 36° Northeast 274 315 17,700 -540 Descending Denver Center
09:10AM 38.1164 -110.3536 39° Northeast 273 314 17,200 -540 Descending Denver Center
09:11AM 38.1792 -110.2781 43° Northeast 276 318 16,700 -840 Descending Denver Center
09:12AM 38.2356 -110.2150 41° Northeast 279 321 15,600 -1,140 Descending Denver Center
09:13AM 38.2975 -110.1544 37° Northeast 287 330 14,500 -1,080 Descending Denver Center
09:14AM 38.3725 -110.0947 32° Northeast 287 330 13,500 -1,140 Descending Denver Center
09:15AM 38.4403 -110.0456 30° Northeast 288 331 12,300 -1,320 Descending Denver Center
09:16AM 38.4972 -110.0053 29° Northeast 290 334 11,100 -1,500 Descending Denver Center